sensor_id;sensor_type;location;lat;lon;timestamp;temperature;humidity
67641;SHT31;54434;50.096;20.082;2023-02-03T00:00:53;1.54;80.86
67641;SHT31;54434;50.096;20.082;2023-02-03T00:03:35;1.55;80.75
67641;SHT31;54434;50.096;20.082;2023-02-03T00:06:12;1.55;80.41
67641;SHT31;54434;50.096;20.082;2023-02-03T00:08:48;1.55;79.99
67641;SHT31;54434;50.096;20.082;2023-02-03T00:11:31;1.54;79.95
67641;SHT31;54434;50.096;20.082;2023-02-03T00:14:07;1.52;79.70
67641;SHT31;54434;50.096;20.082;2023-02-03T00:16:43;1.51;79.55
67641;SHT31;54434;50.096;20.082;2023-02-03T00:19:20;1.51;79.45
67641;SHT31;54434;50.096;20.082;2023-02-03T00:21:57;1.51;79.20
67641;SHT31;54434;50.096;20.082;2023-02-03T00:24:33;1.50;79.20
67641;SHT31;54434;50.096;20.082;2023-02-03T00:27:10;1.50;79.15
67641;SHT31;54434;50.096;20.082;2023-02-03T00:29:46;1.50;79.12
67641;SHT31;54434;50.096;20.082;2023-02-03T00:32:22;1.48;79.11
67641;SHT31;54434;50.096;20.082;2023-02-03T00:34:59;1.47;78.97
67641;SHT31;54434;50.096;20.082;2023-02-03T00:37:35;1.45;78.98
67641;SHT31;54434;50.096;20.082;2023-02-03T00:40:14;1.46;78.75
67641;SHT31;54434;50.096;20.082;2023-02-03T00:42:50;1.45;78.67
67641;SHT31;54434;50.096;20.082;2023-02-03T00:45:27;1.47;78.56
67641;SHT31;54434;50.096;20.082;2023-02-03T00:48:04;1.46;78.42
67641;SHT31;54434;50.096;20.082;2023-02-03T00:50:41;1.44;78.45
67641;SHT31;54434;50.096;20.082;2023-02-03T00:53:21;1.43;78.48
67641;SHT31;54434;50.096;20.082;2023-02-03T00:55:58;1.44;78.32
67641;SHT31;54434;50.096;20.082;2023-02-03T00:58:35;1.41;78.25
67641;SHT31;54434;50.096;20.082;2023-02-03T01:01:11;1.39;77.99
67641;SHT31;54434;50.096;20.082;2023-02-03T01:03:48;1.35;77.14
67641;SHT31;54434;50.096;20.082;2023-02-03T01:06:25;1.32;76.85
67641;SHT31;54434;50.096;20.082;2023-02-03T01:09:03;1.31;76.45
67641;SHT31;54434;50.096;20.082;2023-02-03T01:11:40;1.31;75.92
67641;SHT31;54434;50.096;20.082;2023-02-03T01:14:18;1.30;75.08
67641;SHT31;54434;50.096;20.082;2023-02-03T01:16:55;1.28;72.38
67641;SHT31;54434;50.096;20.082;2023-02-03T01:19:32;1.28;71.09
67641;SHT31;54434;50.096;20.082;2023-02-03T01:22:08;1.29;70.51
67641;SHT31;54434;50.096;20.082;2023-02-03T01:24:45;1.28;70.11
67641;SHT31;54434;50.096;20.082;2023-02-03T01:27:21;1.28;70.63
67641;SHT31;54434;50.096;20.082;2023-02-03T01:29:59;1.28;71.17
67641;SHT31;54434;50.096;20.082;2023-02-03T01:32:36;1.28;71.38
67641;SHT31;54434;50.096;20.082;2023-02-03T01:35:12;1.27;71.74
67641;SHT31;54434;50.096;20.082;2023-02-03T01:37:49;1.27;72.15
67641;SHT31;54434;50.096;20.082;2023-02-03T01:40:25;1.27;72.52
67641;SHT31;54434;50.096;20.082;2023-02-03T01:43:01;1.27;72.93
67641;SHT31;54434;50.096;20.082;2023-02-03T01:45:37;1.29;73.52
67641;SHT31;54434;50.096;20.082;2023-02-03T01:48:15;1.30;73.84
67641;SHT31;54434;50.096;20.082;2023-02-03T01:50:51;1.30;74.11
67641;SHT31;54434;50.096;20.082;2023-02-03T01:53:28;1.31;74.27
67641;SHT31;54434;50.096;20.082;2023-02-03T01:56:06;1.31;74.54
67641;SHT31;54434;50.096;20.082;2023-02-03T01:58:43;1.34;74.68
67641;SHT31;54434;50.096;20.082;2023-02-03T02:01:23;1.36;74.71
67641;SHT31;54434;50.096;20.082;2023-02-03T02:04:02;1.37;74.86
67641;SHT31;54434;50.096;20.082;2023-02-03T02:06:40;1.38;74.94
67641;SHT31;54434;50.096;20.082;2023-02-03T02:09:18;1.38;75.15
67641;SHT31;54434;50.096;20.082;2023-02-03T02:11:55;1.38;75.23
67641;SHT31;54434;50.096;20.082;2023-02-03T02:14:31;1.38;75.42
67641;SHT31;54434;50.096;20.082;2023-02-03T02:17:11;1.36;75.86
67641;SHT31;54434;50.096;20.082;2023-02-03T02:20:34;1.36;76.22
67641;SHT31;54434;50.096;20.082;2023-02-03T02:31:37;1.33;77.03
67641;SHT31;54434;50.096;20.082;2023-02-03T02:34:42;1.31;77.20
67641;SHT31;54434;50.096;20.082;2023-02-03T02:37:36;1.26;77.28
67641;SHT31;54434;50.096;20.082;2023-02-03T02:40:24;1.23;77.30
67641;SHT31;54434;50.096;20.082;2023-02-03T02:43:15;1.21;77.20
67641;SHT31;54434;50.096;20.082;2023-02-03T02:46:00;1.20;77.10
67641;SHT31;54434;50.096;20.082;2023-02-03T02:48:47;1.17;76.92
67641;SHT31;54434;50.096;20.082;2023-02-03T02:51:32;1.12;76.67
67641;SHT31;54434;50.096;20.082;2023-02-03T02:54:13;1.08;76.66
67641;SHT31;54434;50.096;20.082;2023-02-03T02:56:56;1.00;76.70
67641;SHT31;54434;50.096;20.082;2023-02-03T02:59:36;0.91;76.82
67641;SHT31;54434;50.096;20.082;2023-02-03T03:02:12;0.87;76.95
67641;SHT31;54434;50.096;20.082;2023-02-03T03:04:48;0.81;77.10
67641;SHT31;54434;50.096;20.082;2023-02-03T03:07:26;0.75;77.50
67641;SHT31;54434;50.096;20.082;2023-02-03T03:10:11;0.67;77.75
67641;SHT31;54434;50.096;20.082;2023-02-03T03:12:58;0.60;77.88
67641;SHT31;54434;50.096;20.082;2023-02-03T03:15:40;0.54;77.92
67641;SHT31;54434;50.096;20.082;2023-02-03T03:18:22;0.47;78.03
67641;SHT31;54434;50.096;20.082;2023-02-03T03:21:05;0.40;78.18
67641;SHT31;54434;50.096;20.082;2023-02-03T03:23:45;0.31;78.39
67641;SHT31;54434;50.096;20.082;2023-02-03T03:26:29;0.27;78.41
67641;SHT31;54434;50.096;20.082;2023-02-03T03:29:14;0.22;78.40
67641;SHT31;54434;50.096;20.082;2023-02-03T03:31:54;0.15;78.50
67641;SHT31;54434;50.096;20.082;2023-02-03T03:34:31;0.11;78.52
67641;SHT31;54434;50.096;20.082;2023-02-03T03:37:10;0.06;78.70
67641;SHT31;54434;50.096;20.082;2023-02-03T03:39:56;0.03;78.84
67641;SHT31;54434;50.096;20.082;2023-02-03T03:42:39;-0.01;79.07
67641;SHT31;54434;50.096;20.082;2023-02-03T03:45:23;-0.05;79.24
67641;SHT31;54434;50.096;20.082;2023-02-03T03:48:08;-0.08;79.32
67641;SHT31;54434;50.096;20.082;2023-02-03T03:50:52;-0.13;79.35
67641;SHT31;54434;50.096;20.082;2023-02-03T03:53:36;-0.19;79.47
67641;SHT31;54434;50.096;20.082;2023-02-03T03:56:20;-0.21;79.68
67641;SHT31;54434;50.096;20.082;2023-02-03T03:59:03;-0.24;79.73
67641;SHT31;54434;50.096;20.082;2023-02-03T04:01:45;-0.27;79.77
67641;SHT31;54434;50.096;20.082;2023-02-03T04:04:21;-0.32;79.77
67641;SHT31;54434;50.096;20.082;2023-02-03T04:06:59;-0.35;79.80
67641;SHT31;54434;50.096;20.082;2023-02-03T04:09:36;-0.40;79.82
67641;SHT31;54434;50.096;20.082;2023-02-03T04:12:19;-0.45;79.95
67641;SHT31;54434;50.096;20.082;2023-02-03T04:14:58;-0.45;79.90
67641;SHT31;54434;50.096;20.082;2023-02-03T04:17:34;-0.48;79.98
67641;SHT31;54434;50.096;20.082;2023-02-03T04:20:12;-0.51;80.03
67641;SHT31;54434;50.096;20.082;2023-02-03T04:22:50;-0.54;80.09
67641;SHT31;54434;50.096;20.082;2023-02-03T04:25:26;-0.55;80.12
67641;SHT31;54434;50.096;20.082;2023-02-03T04:28:03;-0.56;80.12
67641;SHT31;54434;50.096;20.082;2023-02-03T04:30:39;-0.58;80.20
67641;SHT31;54434;50.096;20.082;2023-02-03T04:33:16;-0.58;80.30
67641;SHT31;54434;50.096;20.082;2023-02-03T04:35:52;-0.59;80.36
67641;SHT31;54434;50.096;20.082;2023-02-03T04:38:28;-0.60;80.40
67641;SHT31;54434;50.096;20.082;2023-02-03T04:41:05;-0.61;80.43
67641;SHT31;54434;50.096;20.082;2023-02-03T04:43:41;-0.61;80.47
67641;SHT31;54434;50.096;20.082;2023-02-03T04:46:18;-0.61;80.50
67641;SHT31;54434;50.096;20.082;2023-02-03T04:48:54;-0.60;80.55
67641;SHT31;54434;50.096;20.082;2023-02-03T04:51:31;-0.59;80.53
67641;SHT31;54434;50.096;20.082;2023-02-03T04:54:07;-0.57;80.54
67641;SHT31;54434;50.096;20.082;2023-02-03T04:56:44;-0.57;80.58
67641;SHT31;54434;50.096;20.082;2023-02-03T04:59:20;-0.56;80.55
67641;SHT31;54434;50.096;20.082;2023-02-03T05:01:57;-0.56;80.56
67641;SHT31;54434;50.096;20.082;2023-02-03T05:04:35;-0.56;80.58
67641;SHT31;54434;50.096;20.082;2023-02-03T05:07:11;-0.56;80.50
67641;SHT31;54434;50.096;20.082;2023-02-03T05:09:47;-0.53;80.44
67641;SHT31;54434;50.096;20.082;2023-02-03T05:12:24;-0.52;80.30
67641;SHT31;54434;50.096;20.082;2023-02-03T05:15:00;-0.52;80.26
67641;SHT31;54434;50.096;20.082;2023-02-03T05:17:38;-0.53;80.16
67641;SHT31;54434;50.096;20.082;2023-02-03T05:20:14;-0.49;80.11
67641;SHT31;54434;50.096;20.082;2023-02-03T05:22:51;-0.48;79.99
67641;SHT31;54434;50.096;20.082;2023-02-03T05:25:27;-0.49;80.00
67641;SHT31;54434;50.096;20.082;2023-02-03T05:28:04;-0.48;79.99
67641;SHT31;54434;50.096;20.082;2023-02-03T05:30:41;-0.48;79.99
67641;SHT31;54434;50.096;20.082;2023-02-03T05:33:17;-0.47;80.02
67641;SHT31;54434;50.096;20.082;2023-02-03T05:35:54;-0.48;80.01
67641;SHT31;54434;50.096;20.082;2023-02-03T05:38:31;-0.48;80.06
67641;SHT31;54434;50.096;20.082;2023-02-03T05:41:07;-0.49;80.05
67641;SHT31;54434;50.096;20.082;2023-02-03T05:44:03;-0.48;80.10
67641;SHT31;54434;50.096;20.082;2023-02-03T05:46:39;-0.47;80.10
67641;SHT31;54434;50.096;20.082;2023-02-03T05:49:15;-0.49;80.14
67641;SHT31;54434;50.096;20.082;2023-02-03T05:51:54;-0.50;80.26
67641;SHT31;54434;50.096;20.082;2023-02-03T05:54:31;-0.51;80.30
67641;SHT31;54434;50.096;20.082;2023-02-03T05:57:07;-0.49;80.30
67641;SHT31;54434;50.096;20.082;2023-02-03T05:59:44;-0.50;80.34
67641;SHT31;54434;50.096;20.082;2023-02-03T06:02:20;-0.51;80.38
67641;SHT31;54434;50.096;20.082;2023-02-03T06:04:56;-0.48;80.33
67641;SHT31;54434;50.096;20.082;2023-02-03T06:07:33;-0.47;80.34
67641;SHT31;54434;50.096;20.082;2023-02-03T06:10:10;-0.47;80.37
67641;SHT31;54434;50.096;20.082;2023-02-03T06:12:47;-0.46;80.40
67641;SHT31;54434;50.096;20.082;2023-02-03T06:15:24;-0.42;80.39
67641;SHT31;54434;50.096;20.082;2023-02-03T06:18:01;-0.42;80.31
67641;SHT31;54434;50.096;20.082;2023-02-03T06:20:38;-0.41;80.35
67641;SHT31;54434;50.096;20.082;2023-02-03T06:23:15;-0.41;80.36
67641;SHT31;54434;50.096;20.082;2023-02-03T06:25:52;-0.42;80.38
67641;SHT31;54434;50.096;20.082;2023-02-03T06:28:30;-0.41;80.39
67641;SHT31;54434;50.096;20.082;2023-02-03T06:31:08;-0.39;80.33
67641;SHT31;54434;50.096;20.082;2023-02-03T06:33:45;-0.40;80.34
67641;SHT31;54434;50.096;20.082;2023-02-03T06:36:21;-0.40;80.36
67641;SHT31;54434;50.096;20.082;2023-02-03T06:38:58;-0.38;80.33
67641;SHT31;54434;50.096;20.082;2023-02-03T06:41:34;-0.35;80.35
67641;SHT31;54434;50.096;20.082;2023-02-03T06:44:10;-0.33;80.30
67641;SHT31;54434;50.096;20.082;2023-02-03T06:46:47;-0.30;80.23
67641;SHT31;54434;50.096;20.082;2023-02-03T06:49:23;-0.26;80.14
67641;SHT31;54434;50.096;20.082;2023-02-03T06:52:00;-0.25;80.00
67641;SHT31;54434;50.096;20.082;2023-02-03T06:54:36;-0.22;79.91
67641;SHT31;54434;50.096;20.082;2023-02-03T06:57:13;-0.18;79.78
67641;SHT31;54434;50.096;20.082;2023-02-03T06:59:49;-0.16;79.63
67641;SHT31;54434;50.096;20.082;2023-02-03T07:02:26;-0.11;79.59
67641;SHT31;54434;50.096;20.082;2023-02-03T07:05:03;-0.06;79.53
67641;SHT31;54434;50.096;20.082;2023-02-03T07:07:40;-0.00;79.42
67641;SHT31;54434;50.096;20.082;2023-02-03T07:10:17;0.05;79.25
67641;SHT31;54434;50.096;20.082;2023-02-03T07:12:54;0.11;79.07
67641;SHT31;54434;50.096;20.082;2023-02-03T07:15:35;0.19;78.82
67641;SHT31;54434;50.096;20.082;2023-02-03T07:18:12;0.25;78.58
67641;SHT31;54434;50.096;20.082;2023-02-03T07:21:10;0.32;78.32
67641;SHT31;54434;50.096;20.082;2023-02-03T07:23:48;0.38;78.10
67641;SHT31;54434;50.096;20.082;2023-02-03T07:26:24;0.45;78.00
67641;SHT31;54434;50.096;20.082;2023-02-03T07:29:01;0.51;77.79
67641;SHT31;54434;50.096;20.082;2023-02-03T07:31:40;0.57;77.70
67641;SHT31;54434;50.096;20.082;2023-02-03T07:34:16;0.63;77.20
67641;SHT31;54434;50.096;20.082;2023-02-03T07:36:52;0.69;77.02
67641;SHT31;54434;50.096;20.082;2023-02-03T07:39:29;0.77;76.92
67641;SHT31;54434;50.096;20.082;2023-02-03T07:42:06;0.85;76.58
67641;SHT31;54434;50.096;20.082;2023-02-03T07:44:47;0.96;76.18
67641;SHT31;54434;50.096;20.082;2023-02-03T07:47:23;1.04;75.73
67641;SHT31;54434;50.096;20.082;2023-02-03T07:49:59;1.12;75.57
67641;SHT31;54434;50.096;20.082;2023-02-03T07:52:36;1.20;75.07
67641;SHT31;54434;50.096;20.082;2023-02-03T07:55:13;1.26;74.83
67641;SHT31;54434;50.096;20.082;2023-02-03T07:57:50;1.38;74.91
67641;SHT31;54434;50.096;20.082;2023-02-03T08:00:28;1.46;74.26
67641;SHT31;54434;50.096;20.082;2023-02-03T08:03:05;1.48;73.76
67641;SHT31;54434;50.096;20.082;2023-02-03T08:05:41;1.56;73.84
67641;SHT31;54434;50.096;20.082;2023-02-03T08:08:17;1.64;73.59
67641;SHT31;54434;50.096;20.082;2023-02-03T08:10:55;1.67;73.35
67641;SHT31;54434;50.096;20.082;2023-02-03T08:13:31;1.73;73.33
67641;SHT31;54434;50.096;20.082;2023-02-03T08:16:08;1.77;73.09
67641;SHT31;54434;50.096;20.082;2023-02-03T08:18:45;1.83;72.93
67641;SHT31;54434;50.096;20.082;2023-02-03T08:21:21;1.85;72.98
67641;SHT31;54434;50.096;20.082;2023-02-03T08:23:57;1.93;72.62
67641;SHT31;54434;50.096;20.082;2023-02-03T08:26:35;1.98;72.02
67641;SHT31;54434;50.096;20.082;2023-02-03T08:29:12;1.97;71.53
67641;SHT31;54434;50.096;20.082;2023-02-03T08:31:49;1.97;71.67
67641;SHT31;54434;50.096;20.082;2023-02-03T08:34:26;1.99;71.18
67641;SHT31;54434;50.096;20.082;2023-02-03T08:37:04;1.98;70.59
67641;SHT31;54434;50.096;20.082;2023-02-03T08:39:42;2.00;70.93
67641;SHT31;54434;50.096;20.082;2023-02-03T08:42:19;2.03;70.79
67641;SHT31;54434;50.096;20.082;2023-02-03T08:44:56;2.08;70.74
67641;SHT31;54434;50.096;20.082;2023-02-03T08:47:36;2.09;70.21
67641;SHT31;54434;50.096;20.082;2023-02-03T08:50:12;2.12;69.85
67641;SHT31;54434;50.096;20.082;2023-02-03T08:52:50;2.15;69.49
67641;SHT31;54434;50.096;20.082;2023-02-03T08:55:26;2.19;69.30
67641;SHT31;54434;50.096;20.082;2023-02-03T08:58:03;2.22;69.13
67641;SHT31;54434;50.096;20.082;2023-02-03T09:00:39;2.25;68.37
67641;SHT31;54434;50.096;20.082;2023-02-03T09:03:16;2.28;67.98
67641;SHT31;54434;50.096;20.082;2023-02-03T09:05:52;2.33;68.32
67641;SHT31;54434;50.096;20.082;2023-02-03T09:08:28;2.41;68.08
67641;SHT31;54434;50.096;20.082;2023-02-03T09:11:09;2.45;67.26
67641;SHT31;54434;50.096;20.082;2023-02-03T09:13:47;2.55;67.11
67641;SHT31;54434;50.096;20.082;2023-02-03T09:16:23;2.60;66.37
67641;SHT31;54434;50.096;20.082;2023-02-03T09:19:01;2.67;66.20
67641;SHT31;54434;50.096;20.082;2023-02-03T09:21:38;2.78;66.01
67641;SHT31;54434;50.096;20.082;2023-02-03T09:24:19;2.82;64.70
67641;SHT31;54434;50.096;20.082;2023-02-03T09:26:55;2.91;65.16
67641;SHT31;54434;50.096;20.082;2023-02-03T09:29:32;3.05;64.93
67641;SHT31;54434;50.096;20.082;2023-02-03T09:32:09;3.18;64.83
67641;SHT31;54434;50.096;20.082;2023-02-03T09:34:46;3.30;63.49
67641;SHT31;54434;50.096;20.082;2023-02-03T09:37:22;3.35;63.01
67641;SHT31;54434;50.096;20.082;2023-02-03T09:40:00;3.36;63.16
67641;SHT31;54434;50.096;20.082;2023-02-03T09:42:51;3.34;62.91
67641;SHT31;54434;50.096;20.082;2023-02-03T09:45:39;3.32;62.98
67641;SHT31;54434;50.096;20.082;2023-02-03T09:48:17;3.30;62.17
67641;SHT31;54434;50.096;20.082;2023-02-03T09:51:14;3.32;62.80
67641;SHT31;54434;50.096;20.082;2023-02-03T09:53:53;3.40;63.01
67641;SHT31;54434;50.096;20.082;2023-02-03T09:56:38;3.41;61.69
67641;SHT31;54434;50.096;20.082;2023-02-03T09:59:21;3.41;61.96
67641;SHT31;54434;50.096;20.082;2023-02-03T10:02:03;3.47;62.21
67641;SHT31;54434;50.096;20.082;2023-02-03T10:05:06;3.53;62.07
67641;SHT31;54434;50.096;20.082;2023-02-03T10:07:57;3.59;61.39
67641;SHT31;54434;50.096;20.082;2023-02-03T10:10:50;3.57;60.56
67641;SHT31;54434;50.096;20.082;2023-02-03T10:13:50;3.47;61.25
67641;SHT31;54434;50.096;20.082;2023-02-03T10:16:44;3.38;62.86
67641;SHT31;54434;50.096;20.082;2023-02-03T10:19:43;3.37;64.65
67641;SHT31;54434;50.096;20.082;2023-02-03T10:22:26;3.35;64.62
67641;SHT31;54434;50.096;20.082;2023-02-03T10:25:13;3.32;64.94
67641;SHT31;54434;50.096;20.082;2023-02-03T10:27:58;3.35;65.60
67641;SHT31;54434;50.096;20.082;2023-02-03T10:30:44;3.39;66.03
67641;SHT31;54434;50.096;20.082;2023-02-03T10:33:28;3.40;66.55
67641;SHT31;54434;50.096;20.082;2023-02-03T10:36:09;3.38;67.48
67641;SHT31;54434;50.096;20.082;2023-02-03T10:38:57;3.33;68.32
67641;SHT31;54434;50.096;20.082;2023-02-03T10:41:46;3.39;68.96
67641;SHT31;54434;50.096;20.082;2023-02-03T10:44:24;3.45;68.45
67641;SHT31;54434;50.096;20.082;2023-02-03T10:47:20;3.47;68.27
67641;SHT31;54434;50.096;20.082;2023-02-03T10:50:08;3.42;68.12
67641;SHT31;54434;50.096;20.082;2023-02-03T10:52:52;3.41;68.55
67641;SHT31;54434;50.096;20.082;2023-02-03T10:56:05;3.43;68.62
67641;SHT31;54434;50.096;20.082;2023-02-03T10:58:49;3.40;68.54
67641;SHT31;54434;50.096;20.082;2023-02-03T11:01:37;3.28;69.60
67641;SHT31;54434;50.096;20.082;2023-02-03T11:04:25;3.21;70.53
67641;SHT31;54434;50.096;20.082;2023-02-03T11:07:04;3.12;71.39
67641;SHT31;54434;50.096;20.082;2023-02-03T11:09:57;3.01;72.12
67641;SHT31;54434;50.096;20.082;2023-02-03T11:12:33;2.96;72.42
67641;SHT31;54434;50.096;20.082;2023-02-03T11:15:16;2.97;72.75
67641;SHT31;54434;50.096;20.082;2023-02-03T11:17:52;2.95;72.58
67641;SHT31;54434;50.096;20.082;2023-02-03T11:20:29;2.89;72.91
67641;SHT31;54434;50.096;20.082;2023-02-03T11:23:09;2.87;73.15
67641;SHT31;54434;50.096;20.082;2023-02-03T11:25:46;2.83;73.09
67641;SHT31;54434;50.096;20.082;2023-02-03T11:28:23;2.83;73.09
67641;SHT31;54434;50.096;20.082;2023-02-03T11:31:02;2.83;73.28
67641;SHT31;54434;50.096;20.082;2023-02-03T11:33:51;2.81;73.14
67641;SHT31;54434;50.096;20.082;2023-02-03T11:36:33;2.75;73.15
67641;SHT31;54434;50.096;20.082;2023-02-03T11:39:15;2.69;73.26
67641;SHT31;54434;50.096;20.082;2023-02-03T11:41:57;2.61;73.79
67641;SHT31;54434;50.096;20.082;2023-02-03T11:44:34;2.50;74.17
67641;SHT31;54434;50.096;20.082;2023-02-03T11:47:11;2.35;74.59
67641;SHT31;54434;50.096;20.082;2023-02-03T11:50:06;2.20;75.19
67641;SHT31;54434;50.096;20.082;2023-02-03T11:53:03;2.08;75.92
67641;SHT31;54434;50.096;20.082;2023-02-03T11:56:10;1.97;76.28
67641;SHT31;54434;50.096;20.082;2023-02-03T12:02:44;1.76;77.11
67641;SHT31;54434;50.096;20.082;2023-02-03T12:06:04;1.67;77.59
67641;SHT31;54434;50.096;20.082;2023-02-03T12:09:08;1.62;77.97
67641;SHT31;54434;50.096;20.082;2023-02-03T12:12:18;1.55;78.52
67641;SHT31;54434;50.096;20.082;2023-02-03T12:15:23;1.47;78.89
67641;SHT31;54434;50.096;20.082;2023-02-03T12:18:27;1.46;79.16
67641;SHT31;54434;50.096;20.082;2023-02-03T12:21:36;1.47;79.39
67641;SHT31;54434;50.096;20.082;2023-02-03T12:24:26;1.48;79.60
67641;SHT31;54434;50.096;20.082;2023-02-03T12:27:23;1.49;79.75
67641;SHT31;54434;50.096;20.082;2023-02-03T12:30:14;1.53;79.96
67641;SHT31;54434;50.096;20.082;2023-02-03T12:33:03;1.53;80.20
67641;SHT31;54434;50.096;20.082;2023-02-03T12:35:51;1.51;80.43
67641;SHT31;54434;50.096;20.082;2023-02-03T12:38:38;1.55;80.56
67641;SHT31;54434;50.096;20.082;2023-02-03T12:41:23;1.56;80.59
67641;SHT31;54434;50.096;20.082;2023-02-03T12:44:06;1.58;80.61
67641;SHT31;54434;50.096;20.082;2023-02-03T12:46:54;1.59;80.71
67641;SHT31;54434;50.096;20.082;2023-02-03T12:49:42;1.57;80.84
67641;SHT31;54434;50.096;20.082;2023-02-03T12:52:27;1.54;80.98
67641;SHT31;54434;50.096;20.082;2023-02-03T12:55:17;1.51;81.05
67641;SHT31;54434;50.096;20.082;2023-02-03T12:58:06;1.52;81.11
67641;SHT31;54434;50.096;20.082;2023-02-03T13:00:55;1.52;81.16
67641;SHT31;54434;50.096;20.082;2023-02-03T13:03:40;1.49;81.29
67641;SHT31;54434;50.096;20.082;2023-02-03T13:06:25;1.46;81.50
67641;SHT31;54434;50.096;20.082;2023-02-03T13:09:17;1.45;81.63
67641;SHT31;54434;50.096;20.082;2023-02-03T13:12:11;1.46;81.74
67641;SHT31;54434;50.096;20.082;2023-02-03T13:14:58;1.48;81.85
67641;SHT31;54434;50.096;20.082;2023-02-03T13:17:54;1.47;81.95
67641;SHT31;54434;50.096;20.082;2023-02-03T13:20:37;1.49;82.03
67641;SHT31;54434;50.096;20.082;2023-02-03T13:23:14;1.49;82.14
67641;SHT31;54434;50.096;20.082;2023-02-03T13:26:11;1.47;82.25
67641;SHT31;54434;50.096;20.082;2023-02-03T13:29:11;1.45;82.48
67641;SHT31;54434;50.096;20.082;2023-02-03T13:32:22;1.44;82.60
67641;SHT31;54434;50.096;20.082;2023-02-03T13:35:27;1.48;82.71
67641;SHT31;54434;50.096;20.082;2023-02-03T13:38:43;1.50;82.70
67641;SHT31;54434;50.096;20.082;2023-02-03T13:41:53;1.53;82.79
67641;SHT31;54434;50.096;20.082;2023-02-03T13:44:45;1.57;82.80
67641;SHT31;54434;50.096;20.082;2023-02-03T13:47:27;1.60;82.84
67641;SHT31;54434;50.096;20.082;2023-02-03T13:50:06;1.62;82.90
67641;SHT31;54434;50.096;20.082;2023-02-03T13:52:58;1.65;82.99
67641;SHT31;54434;50.096;20.082;2023-02-03T13:55:41;1.70;83.00
67641;SHT31;54434;50.096;20.082;2023-02-03T13:58:26;1.72;83.06
67641;SHT31;54434;50.096;20.082;2023-02-03T14:01:29;1.77;83.10
67641;SHT31;54434;50.096;20.082;2023-02-03T14:04:49;1.76;83.19
67641;SHT31;54434;50.096;20.082;2023-02-03T14:07:32;1.78;83.30
67641;SHT31;54434;50.096;20.082;2023-02-03T14:10:22;1.81;83.34
67641;SHT31;54434;50.096;20.082;2023-02-03T14:13:01;1.84;83.40
67641;SHT31;54434;50.096;20.082;2023-02-03T14:16:20;1.86;83.39
67641;SHT31;54434;50.096;20.082;2023-02-03T14:18:58;1.83;83.42
67641;SHT31;54434;50.096;20.082;2023-02-03T14:21:39;1.84;83.49
67641;SHT31;54434;50.096;20.082;2023-02-03T14:24:21;1.81;83.55
67641;SHT31;54434;50.096;20.082;2023-02-03T14:27:14;1.80;83.65
67641;SHT31;54434;50.096;20.082;2023-02-03T14:30:05;1.76;83.76
67641;SHT31;54434;50.096;20.082;2023-02-03T14:32:51;1.75;83.85
67641;SHT31;54434;50.096;20.082;2023-02-03T14:35:33;1.73;83.92
67641;SHT31;54434;50.096;20.082;2023-02-03T14:38:13;1.72;84.03
67641;SHT31;54434;50.096;20.082;2023-02-03T14:40:52;1.69;84.04
67641;SHT31;54434;50.096;20.082;2023-02-03T14:43:35;1.68;84.11
67641;SHT31;54434;50.096;20.082;2023-02-03T14:46:31;1.67;84.19
67641;SHT31;54434;50.096;20.082;2023-02-03T14:49:46;1.67;84.19
67641;SHT31;54434;50.096;20.082;2023-02-03T14:53:03;1.63;84.32
67641;SHT31;54434;50.096;20.082;2023-02-03T14:56:03;1.59;84.42
67641;SHT31;54434;50.096;20.082;2023-02-03T14:58:56;1.57;84.55
67641;SHT31;54434;50.096;20.082;2023-02-03T15:02:10;1.56;84.58
67641;SHT31;54434;50.096;20.082;2023-02-03T15:11:28;1.49;84.94
67641;SHT31;54434;50.096;20.082;2023-02-03T15:14:23;1.48;84.97
67641;SHT31;54434;50.096;20.082;2023-02-03T15:17:03;1.47;85.04
67641;SHT31;54434;50.096;20.082;2023-02-03T15:19:55;1.44;85.12
67641;SHT31;54434;50.096;20.082;2023-02-03T15:22:37;1.44;85.12
67641;SHT31;54434;50.096;20.082;2023-02-03T15:25:16;1.43;85.41
67641;SHT31;54434;50.096;20.082;2023-02-03T15:28:09;1.38;85.38
67641;SHT31;54434;50.096;20.082;2023-02-03T15:30:53;1.38;85.40
67641;SHT31;54434;50.096;20.082;2023-02-03T15:33:38;1.38;85.44
67641;SHT31;54434;50.096;20.082;2023-02-03T15:36:17;1.35;85.64
67641;SHT31;54434;50.096;20.082;2023-02-03T15:39:08;1.34;85.63
67641;SHT31;54434;50.096;20.082;2023-02-03T15:41:54;1.32;85.73
67641;SHT31;54434;50.096;20.082;2023-02-03T15:44:34;1.29;85.82
67641;SHT31;54434;50.096;20.082;2023-02-03T15:47:24;1.29;85.87
67641;SHT31;54434;50.096;20.082;2023-02-03T15:50:26;1.27;86.03
67641;SHT31;54434;50.096;20.082;2023-02-03T15:53:14;1.25;86.15
67641;SHT31;54434;50.096;20.082;2023-02-03T15:56:06;1.25;86.07
67641;SHT31;54434;50.096;20.082;2023-02-03T15:58:52;1.27;86.16
67641;SHT31;54434;50.096;20.082;2023-02-03T16:01:29;1.27;86.17
67641;SHT31;54434;50.096;20.082;2023-02-03T16:04:07;1.28;86.48
67641;SHT31;54434;50.096;20.082;2023-02-03T16:06:47;1.30;86.35
67641;SHT31;54434;50.096;20.082;2023-02-03T16:09:32;1.34;86.31
67641;SHT31;54434;50.096;20.082;2023-02-03T16:12:23;1.35;86.26
67641;SHT31;54434;50.096;20.082;2023-02-03T16:15:01;1.36;86.39
67641;SHT31;54434;50.096;20.082;2023-02-03T16:17:38;1.40;86.54
67641;SHT31;54434;50.096;20.082;2023-02-03T16:20:26;1.44;86.55
67641;SHT31;54434;50.096;20.082;2023-02-03T16:23:16;1.50;86.57
67641;SHT31;54434;50.096;20.082;2023-02-03T16:26:05;1.54;86.67
67641;SHT31;54434;50.096;20.082;2023-02-03T16:29:12;1.59;86.64
67641;SHT31;54434;50.096;20.082;2023-02-03T16:32:17;1.65;86.78
67641;SHT31;54434;50.096;20.082;2023-02-03T16:35:12;1.73;86.73
67641;SHT31;54434;50.096;20.082;2023-02-03T16:38:15;1.77;86.74
67641;SHT31;54434;50.096;20.082;2023-02-03T16:41:14;1.84;86.84
67641;SHT31;54434;50.096;20.082;2023-02-03T16:44:10;1.89;86.82
67641;SHT31;54434;50.096;20.082;2023-02-03T16:47:08;1.94;86.91
67641;SHT31;54434;50.096;20.082;2023-02-03T16:50:18;1.99;87.03
67641;SHT31;54434;50.096;20.082;2023-02-03T16:53:15;2.05;87.10
67641;SHT31;54434;50.096;20.082;2023-02-03T16:55:55;2.09;87.18
67641;SHT31;54434;50.096;20.082;2023-02-03T16:58:36;2.13;87.11
67641;SHT31;54434;50.096;20.082;2023-02-03T17:01:12;2.18;87.05
67641;SHT31;54434;50.096;20.082;2023-02-03T17:03:49;2.23;86.96
67641;SHT31;54434;50.096;20.082;2023-02-03T17:06:25;2.27;87.16
67641;SHT31;54434;50.096;20.082;2023-02-03T17:09:03;2.32;86.91
67641;SHT31;54434;50.096;20.082;2023-02-03T17:11:40;2.36;86.82
67641;SHT31;54434;50.096;20.082;2023-02-03T17:14:17;2.39;86.75
67641;SHT31;54434;50.096;20.082;2023-02-03T17:16:53;2.42;86.72
67641;SHT31;54434;50.096;20.082;2023-02-03T17:19:30;2.47;86.75
67641;SHT31;54434;50.096;20.082;2023-02-03T17:22:07;2.51;86.53
67641;SHT31;54434;50.096;20.082;2023-02-03T17:24:44;2.54;86.61